Time;durP1;ratioP1;P1;durP2;ratioP2;P2;SDS_P1;SDS_P2;PMS_P1;PMS_P2;Temp;Humidity;BMP_temperature;BMP_pressure;BME280_temperature;BME280_humidity;BME280_pressure;Samples;Min_cycle;Max_cycle;Signal;HPM_P1;HPM_P2
2021/07/02 00:02:00;;;;;;;6.65;5.00;;;15.50;81.30;;;14.05;80.42;96123.66;4984079;28;20517;-64
2021/07/02 00:04:27;;;;;;;7.68;5.10;;;15.60;81.10;;;14.02;79.38;96124.03;4957828;28;20518;-64
2021/07/02 00:06:53;;;;;;;9.00;5.28;;;15.40;81.40;;;14.00;80.39;96120.81;4984325;28;20053;-64
2021/07/02 00:09:18;;;;;;;8.35;4.97;;;15.40;81.50;;;14.01;80.09;96119.78;4998766;28;20069;-64
2021/07/02 00:11:44;;;;;;;7.50;4.75;;;15.50;81.40;;;14.01;79.87;96120.59;5009210;28;20116;-64
2021/07/02 00:14:10;;;;;;;6.95;5.07;;;15.50;81.30;;;14.00;80.26;96124.25;4972463;28;20129;-64
2021/07/02 00:16:36;;;;;;;9.93;5.95;;;15.50;81.30;;;13.98;79.82;96120.19;4986836;28;20118;-65
2021/07/02 00:19:02;;;;;;;6.13;4.78;;;15.40;81.40;;;13.97;81.54;96114.09;4946241;28;20046;-64
2021/07/02 00:21:28;;;;;;;7.70;5.38;;;15.50;81.30;;;13.99;80.09;96116.53;4994487;28;20446;-64
2021/07/02 00:23:53;;;;;;;7.20;4.95;;;15.50;81.20;;;14.00;80.79;96121.63;5005052;28;20096;-64
2021/07/02 00:26:19;;;;;;;7.43;5.00;;;15.50;81.20;;;14.01;80.68;96114.50;4977146;28;20065;-64
2021/07/02 00:28:45;;;;;;;9.63;5.45;;;15.60;81.20;;;14.02;80.68;96114.28;4980211;28;20085;-64
2021/07/02 00:31:11;;;;;;;8.02;4.78;;;15.60;81.00;;;14.04;81.21;96109.63;4983871;28;20069;-64
2021/07/02 00:33:36;;;;;;;8.57;5.68;;;15.60;81.20;;;14.05;80.50;96119.19;4993049;28;20060;-64
2021/07/02 00:36:03;;;;;;;10.00;5.30;;;15.60;81.00;;;14.05;80.40;96110.44;4973217;28;20045;-64
2021/07/02 00:38:29;;;;;;;9.38;5.70;;;15.60;81.30;;;14.06;80.68;96107.56;4992290;28;20035;-64
2021/07/02 00:40:54;;;;;;;5.57;4.78;;;15.50;80.80;;;14.05;81.45;96105.94;4986658;28;20100;-64
2021/07/02 00:43:20;;;;;;;7.15;4.90;;;15.60;81.10;;;14.07;81.39;96109.19;5001465;28;20026;-64
2021/07/02 00:45:46;;;;;;;5.85;4.60;;;15.60;80.90;;;14.07;80.09;96113.69;5010733;28;20097;-65
2021/07/02 00:48:12;;;;;;;7.28;5.18;;;15.60;80.30;;;14.09;81.25;96111.63;4992477;28;20065;-66
2021/07/02 00:50:37;;;;;;;8.40;5.00;;;15.60;80.30;;;14.09;80.45;96123.03;4991009;28;20065;-65
2021/07/02 00:53:04;;;;;;;6.80;4.93;;;15.60;80.10;;;14.09;79.74;96112.44;4981309;28;20073;-64
2021/07/02 00:55:31;;;;;;;7.57;4.68;;;15.60;80.10;;;14.07;79.18;96111.84;4977370;28;20128;-64
2021/07/02 00:57:57;;;;;;;7.88;4.95;;;15.50;80.00;;;14.06;80.24;96112.06;4989153;28;20053;-64
2021/07/02 01:00:22;;;;;;;7.28;5.28;;;15.50;80.20;;;14.04;80.34;96104.34;4973119;28;20494;-64
2021/07/02 01:02:48;;;;;;;7.82;5.32;;;15.60;79.90;;;14.02;79.39;96095.78;4971464;28;20042;-64
2021/07/02 01:05:14;;;;;;;5.75;5.15;;;15.50;79.80;;;14.01;79.86;96099.44;5005821;28;20026;-64
2021/07/02 01:07:41;;;;;;;6.25;4.70;;;15.50;79.70;;;13.99;80.10;96096.19;4989983;28;20077;-64
2021/07/02 01:10:07;;;;;;;7.60;5.15;;;15.50;79.80;;;13.97;79.60;96100.88;5007598;28;20045;-65
2021/07/02 01:12:34;;;;;;;8.40;5.40;;;15.30;79.90;;;13.91;79.77;96099.09;4988704;28;20042;-64
2021/07/02 01:14:59;;;;;;;9.23;5.13;;;15.20;79.80;;;13.87;79.26;96103.16;4972755;28;20038;-64
2021/07/02 01:17:25;;;;;;;6.32;5.18;;;15.20;79.90;;;13.84;79.74;96098.31;4984819;28;20114;-65
2021/07/02 01:19:53;;;;;;;8.52;5.10;;;15.20;79.80;;;13.82;80.05;96104.81;4976907;28;20046;-65
2021/07/02 01:22:26;;;;;;;6.55;4.75;;;15.10;80.10;;;13.81;80.39;96104.00;4977101;28;20042;-64
2021/07/02 01:24:55;;;;;;;6.32;4.80;;;15.20;80.10;;;13.75;79.17;96104.81;4989244;28;20511;-64
2021/07/02 01:27:21;;;;;;;8.68;4.80;;;15.00;80.20;;;13.69;79.09;96100.38;4976428;28;20053;-64
2021/07/02 01:29:48;;;;;;;7.03;5.20;;;15.00;80.50;;;13.67;78.46;96105.88;4994608;28;20030;-64
2021/07/02 01:32:15;;;;;;;7.45;5.30;;;15.00;80.50;;;13.62;80.11;96100.41;4984560;28;20522;-64
2021/07/02 01:34:41;;;;;;;8.55;5.32;;;14.90;80.50;;;13.59;79.43;96100.00;4985152;28;20096;-64
2021/07/02 01:37:08;;;;;;;6.50;4.60;;;14.90;80.70;;;13.61;80.24;96097.97;4989238;28;20514;-65
2021/07/02 01:39:34;;;;;;;8.05;5.22;;;15.00;80.70;;;13.61;79.42;96098.78;4979602;28;20502;-64
2021/07/02 01:42:00;;;;;;;6.95;4.90;;;15.10;80.70;;;13.63;80.11;96106.50;4990072;28;20125;-64
2021/07/02 01:44:26;;;;;;;7.50;4.93;;;15.10;80.10;;;13.63;79.18;96103.88;4983466;28;20048;-64
2021/07/02 01:46:51;;;;;;;10.23;5.38;;;15.00;80.20;;;13.62;79.44;96099.59;4967271;28;20401;-64
2021/07/02 01:49:17;;;;;;;7.40;5.00;;;15.10;80.00;;;13.61;80.05;96093.50;4993725;28;20054;-64
2021/07/02 01:51:43;;;;;;;5.93;4.80;;;15.00;80.00;;;13.57;80.27;96094.09;4973096;28;20046;-64
2021/07/02 01:54:09;;;;;;;6.38;5.10;;;14.90;80.30;;;13.54;80.29;96102.44;5007742;28;20515;-65
2021/07/02 01:56:35;;;;;;;9.68;5.32;;;14.90;80.70;;;13.51;80.44;96097.56;5008409;28;20526;-64
2021/07/02 01:59:00;;;;;;;5.97;5.00;;;14.80;81.00;;;13.52;79.47;96099.19;4964049;28;20422;-64
2021/07/02 02:01:26;;;;;;;7.97;5.22;;;14.90;80.80;;;13.49;80.51;96103.88;4964586;28;20038;-65
2021/07/02 02:03:55;;;;;;;7.40;5.03;;;14.90;80.90;;;13.48;79.89;96096.97;4993013;28;20565;-64
2021/07/02 02:06:21;;;;;;;8.32;5.80;;;14.90;81.00;;;13.47;80.42;96090.06;4963792;28;20084;-64
2021/07/02 02:08:46;;;;;;;9.43;5.75;;;14.80;81.20;;;13.48;80.52;96089.03;4989888;28;20058;-64
2021/07/02 02:11:12;;;;;;;7.20;4.97;;;14.90;81.20;;;13.48;80.79;96082.94;4973351;28;20038;-64
2021/07/02 02:13:38;;;;;;;7.70;5.10;;;14.90;81.10;;;13.48;80.40;96094.34;4971384;28;20042;-64
2021/07/02 02:16:04;;;;;;;8.38;5.32;;;15.00;80.90;;;13.49;80.11;96095.16;4988130;28;20038;-65
2021/07/02 02:18:30;;;;;;;8.90;4.97;;;14.90;80.70;;;13.49;80.58;96088.03;4988353;28;20149;-65
2021/07/02 02:20:56;;;;;;;9.77;5.35;;;15.00;81.00;;;13.49;80.78;96090.66;4999561;28;20172;-64
2021/07/02 02:23:21;;;;;;;7.88;4.88;;;15.00;80.60;;;13.49;80.79;96087.22;4963291;28;20042;-65
2021/07/02 02:25:47;;;;;;;7.80;5.55;;;15.10;80.60;;;13.50;80.50;96086.19;4973376;28;20038;-65
2021/07/02 02:28:13;;;;;;;6.80;4.97;;;15.00;80.40;;;13.49;80.22;96095.94;5011612;28;20123;-64
2021/07/02 02:30:38;;;;;;;6.05;4.75;;;15.00;80.50;;;13.49;80.38;96095.94;4979357;28;20045;-64
2021/07/02 02:33:05;;;;;;;6.95;5.32;;;15.00;80.50;;;13.51;80.20;96097.56;4973098;28;20057;-64
2021/07/02 02:35:33;;;;;;;7.82;4.90;;;15.10;80.60;;;13.51;79.91;96093.09;4971728;28;20057;-64
2021/07/02 02:37:58;;;;;;;7.35;4.95;;;15.10;80.70;;;13.49;80.40;96095.94;4964634;28;20038;-64
2021/07/02 02:40:24;;;;;;;7.20;5.22;;;15.00;80.50;;;13.48;80.15;96096.97;4985373;28;20022;-64
2021/07/02 02:42:50;;;;;;;9.50;5.32;;;15.00;80.30;;;13.46;81.02;96093.72;4976052;28;20065;-65
2021/07/02 02:45:16;;;;;;;6.72;5.07;;;14.90;80.60;;;13.46;80.69;96093.72;4999529;28;20109;-65
2021/07/02 02:47:42;;;;;;;6.18;5.03;;;15.00;80.50;;;13.45;80.78;96099.22;4963175;28;20040;-64
2021/07/02 02:50:08;;;;;;;8.10;5.35;;;15.00;80.50;;;13.44;79.70;96098.41;4985841;28;20056;-64
2021/07/02 02:52:34;;;;;;;8.00;5.35;;;14.90;80.50;;;13.41;80.86;96095.38;4984405;28;20121;-64
2021/07/02 02:55:00;;;;;;;8.05;5.88;;;14.90;80.80;;;13.39;80.54;96100.88;4994691;28;20076;-64
2021/07/02 02:57:25;;;;;;;8.23;5.60;;;14.90;80.80;;;13.38;80.07;96099.25;4979398;28;20123;-64
2021/07/02 02:59:51;;;;;;;7.82;5.70;;;14.80;80.90;;;13.35;81.13;96094.38;4977144;28;20119;-64
2021/07/02 03:02:17;;;;;;;8.90;5.15;;;14.70;81.20;;;13.33;80.45;96098.22;4974668;28;20053;-65
2021/07/02 03:04:43;;;;;;;7.57;5.70;;;14.80;81.40;;;13.29;80.94;96099.66;5007921;28;20046;-65
2021/07/02 03:07:08;;;;;;;6.72;4.80;;;14.70;81.80;;;13.28;81.09;96104.13;4975806;28;20058;-64
2021/07/02 03:09:34;;;;;;;7.90;5.30;;;14.70;81.90;;;13.30;80.68;96101.28;4995795;28;20042;-64
2021/07/02 03:12:00;;;;;;;9.23;5.40;;;14.80;81.70;;;13.29;81.47;96105.75;4976882;28;20038;-64
2021/07/02 03:14:26;;;;;;;8.45;5.53;;;14.80;81.70;;;13.29;80.87;96108.38;4990945;28;20092;-64
2021/07/02 03:16:52;;;;;;;8.10;5.60;;;14.80;81.80;;;13.30;82.18;96107.38;4975447;28;20054;-64
2021/07/02 03:19:18;;;;;;;7.40;5.38;;;14.90;81.80;;;13.30;81.16;96107.38;4994504;28;20042;-65
2021/07/02 03:21:43;;;;;;;8.80;5.35;;;14.90;81.90;;;13.30;81.48;96102.09;4960782;28;20035;-64
2021/07/02 03:24:09;;;;;;;7.72;5.70;;;14.80;81.70;;;13.30;81.41;96102.09;4975011;28;20054;-64
2021/07/02 03:26:35;;;;;;;6.90;5.43;;;14.80;81.80;;;13.31;81.74;96109.00;4977992;28;20121;-64
2021/07/02 03:29:01;;;;;;;10.55;5.40;;;14.90;81.90;;;13.32;82.14;96105.34;4990527;28;20534;-64
2021/07/02 03:31:27;;;;;;;7.15;5.53;;;14.80;82.00;;;13.33;81.01;96106.13;4975523;28;20038;-64
2021/07/02 03:33:53;;;;;;;9.45;5.57;;;14.80;82.00;;;13.33;81.46;96106.94;4975160;28;20041;-64
2021/07/02 03:36:19;;;;;;;8.52;5.93;;;14.80;82.00;;;13.33;82.14;96111.44;5003326;28;20109;-65
2021/07/02 03:38:45;;;;;;;7.43;5.63;;;14.80;82.00;;;13.33;82.49;96100.84;4990567;28;20150;-64
2021/07/02 03:41:10;;;;;;;9.60;5.68;;;14.90;81.90;;;13.33;82.39;96104.31;5003395;28;20623;-65
2021/07/02 03:43:36;;;;;;;7.45;5.28;;;14.90;82.00;;;13.35;82.10;96107.59;4984097;28;20080;-64
2021/07/02 03:46:02;;;;;;;8.90;5.63;;;15.00;82.00;;;13.36;82.21;96106.56;4989255;28;20121;-65
2021/07/02 03:48:28;;;;;;;13.15;5.60;;;14.90;81.90;;;13.38;82.40;96109.81;4961005;28;20093;-64
2021/07/02 03:50:53;;;;;;;11.18;6.10;;;15.00;82.00;;;13.38;81.90;96109.81;4974929;28;20042;-64
2021/07/02 03:53:19;;;;;;;8.70;6.28;;;14.90;81.70;;;13.38;81.67;96103.72;4991537;28;20522;-64
2021/07/02 03:55:45;;;;;;;9.05;6.20;;;14.90;81.90;;;13.40;81.93;96113.06;4991413;28;20034;-65
2021/07/02 03:58:11;;;;;;;9.63;6.28;;;15.10;81.80;;;13.40;82.13;96113.06;4968599;28;20039;-64
2021/07/02 04:00:36;;;;;;;7.55;5.65;;;15.00;81.90;;;13.42;81.75;96105.75;4991157;28;20113;-64
2021/07/02 04:03:02;;;;;;;9.07;5.53;;;15.00;81.80;;;13.44;81.68;96114.25;4976075;28;20033;-64
2021/07/02 04:05:28;;;;;;;12.10;6.03;;;15.10;81.70;;;13.45;82.81;96115.88;5008392;28;20026;-65
2021/07/02 04:07:54;;;;;;;9.38;5.93;;;15.10;81.60;;;13.46;81.64;96111.41;4977994;28;20156;-65
2021/07/02 04:10:20;;;;;;;9.00;6.25;;;15.10;81.50;;;13.47;82.28;96111.22;4977340;28;20069;-64
2021/07/02 04:12:45;;;;;;;10.55;5.93;;;15.10;81.40;;;13.47;82.24;96105.91;4988787;28;20066;-64
2021/07/02 04:15:11;;;;;;;7.55;5.72;;;15.10;81.40;;;13.51;82.35;96111.59;4973801;28;20145;-65
2021/07/02 04:17:38;;;;;;;7.82;5.72;;;15.20;81.40;;;13.53;81.97;96104.28;4974529;28;20054;-65
2021/07/02 04:20:08;;;;;;;8.85;6.00;;;15.20;81.30;;;13.57;81.89;96112.59;4969533;28;20043;-65
2021/07/02 04:22:35;;;;;;;9.02;6.78;;;15.30;81.30;;;13.60;81.75;96112.22;4975308;28;20045;-64
2021/07/02 04:25:01;;;;;;;8.80;6.50;;;15.30;81.40;;;13.62;81.46;96118.09;4981553;28;20041;-64
2021/07/02 04:27:27;;;;;;;11.18;6.85;;;15.30;81.20;;;13.63;82.43;96117.06;4983670;28;20037;-64
2021/07/02 04:29:53;;;;;;;8.52;6.63;;;15.30;80.70;;;13.65;82.28;96115.03;5009807;28;20058;-65
2021/07/02 04:32:18;;;;;;;10.98;6.40;;;15.30;80.70;;;13.66;81.94;96119.31;4968622;28;20068;-64
2021/07/02 04:34:44;;;;;;;8.85;6.80;;;15.40;80.80;;;13.69;82.19;96119.69;4975406;28;20447;-64
2021/07/02 04:37:10;;;;;;;12.65;6.18;;;15.30;80.70;;;13.71;81.10;96120.28;4974202;28;20615;-64
2021/07/02 04:39:36;;;;;;;10.23;6.05;;;15.40;80.50;;;13.76;81.68;96122.31;4974006;28;20585;-64
2021/07/02 04:42:04;;;;;;;10.07;6.82;;;15.50;80.30;;;13.80;82.33;96120.88;4988652;28;20058;-67
2021/07/02 04:44:39;;;;;;;9.93;7.10;;;15.50;80.20;;;13.85;82.13;96126.38;4992539;28;20029;-66
2021/07/02 04:47:06;;;;;;;8.95;6.88;;;15.60;80.00;;;13.88;80.85;96125.94;4969401;28;20034;-64
2021/07/02 04:49:33;;;;;;;9.18;6.70;;;15.60;80.10;;;13.93;81.82;96120.84;4959006;28;20038;-68
2021/07/02 04:51:58;;;;;;;9.00;6.03;;;15.60;79.70;;;13.96;81.56;96117.78;4992262;28;20031;-68
2021/07/02 04:54:24;;;;;;;9.30;6.68;;;15.70;79.50;;;14.00;81.24;96118.97;4985496;28;20648;-67
2021/07/02 04:56:51;;;;;;;11.25;6.82;;;15.60;79.20;;;14.00;81.09;96126.09;4999217;28;20080;-67
2021/07/02 04:59:18;;;;;;;11.88;7.30;;;15.60;79.30;;;14.03;80.54;96120.38;4985058;28;20580;-66
2021/07/02 05:01:44;;;;;;;11.45;6.47;;;15.60;79.50;;;14.07;80.84;96114.50;4989913;28;20034;-67
2021/07/02 05:04:10;;;;;;;11.65;6.80;;;15.70;79.20;;;14.09;79.58;96112.44;4997430;28;20506;-68
2021/07/02 05:06:39;;;;;;;26.90;20.42;;;15.70;79.30;;;14.15;81.53;96113.41;4989232;28;20419;-68
2021/07/02 05:09:08;;;;;;;12.15;8.52;;;15.80;79.50;;;14.18;79.53;96113.00;4999544;28;20374;-68
2021/07/02 05:11:34;;;;;;;11.70;6.80;;;15.90;78.80;;;14.23;79.93;96112.34;4989557;28;20038;-68
2021/07/02 05:14:02;;;;;;;10.07;6.43;;;15.90;78.50;;;14.27;80.29;96118.88;4996267;28;20034;-65
2021/07/02 05:16:28;;;;;;;10.40;6.95;;;16.00;78.40;;;14.33;79.04;96118.03;5008328;28;20029;-64
2021/07/02 05:18:53;;;;;;;8.63;6.38;;;16.10;78.20;;;14.36;79.84;96117.59;4991396;28;20104;-64
2021/07/02 05:21:19;;;;;;;10.27;6.05;;;16.10;77.70;;;14.42;80.17;96124.69;4997868;28;20069;-64
2021/07/02 05:23:45;;;;;;;7.05;5.78;;;16.10;77.80;;;14.48;79.07;96131.78;4985098;28;20030;-64
2021/07/02 05:26:12;;;;;;;10.30;6.45;;;16.20;77.70;;;14.52;79.13;96126.91;4989372;28;20114;-64
2021/07/02 05:28:38;;;;;;;11.77;7.80;;;16.20;77.50;;;14.55;79.25;96129.94;4981011;28;20046;-64
2021/07/02 05:31:04;;;;;;;11.80;6.68;;;16.40;77.50;;;14.59;78.32;96127.69;4985227;28;20571;-64
2021/07/02 05:33:30;;;;;;;8.55;5.78;;;16.40;77.20;;;14.64;79.33;96135.78;4991752;28;20038;-64
2021/07/02 05:35:55;;;;;;;10.40;5.88;;;16.40;76.70;;;14.67;78.45;96130.88;4976118;28;20046;-64
2021/07/02 05:38:21;;;;;;;6.88;5.72;;;16.40;76.00;;;14.70;78.90;96125.13;4988258;28;20038;-64
2021/07/02 05:40:47;;;;;;;11.82;7.75;;;16.40;76.40;;;14.75;78.68;96127.19;4999232;28;20116;-64
2021/07/02 05:43:13;;;;;;;14.73;9.98;;;16.50;76.20;;;14.78;78.70;96141.81;4962550;28;20128;-64
2021/07/02 05:45:40;;;;;;;18.08;8.25;;;16.50;76.00;;;14.80;77.57;96142.41;4982569;28;20080;-65
2021/07/02 05:48:06;;;;;;;9.50;6.57;;;16.40;75.90;;;14.79;76.90;96143.44;4991478;28;20397;-65
2021/07/02 05:50:32;;;;;;;10.20;6.50;;;16.40;76.00;;;14.81;78.25;96146.69;4987718;28;20030;-65
2021/07/02 05:52:58;;;;;;;11.93;6.22;;;16.40;76.00;;;14.83;78.28;96141.97;4988517;28;20034;-66
2021/07/02 05:55:24;;;;;;;8.13;6.18;;;16.40;76.30;;;14.81;77.76;96151.97;4987573;28;20122;-67
2021/07/02 05:57:50;;;;;;;9.85;5.90;;;16.40;76.20;;;14.82;76.84;96149.13;4988757;28;20026;-64
2021/07/02 06:00:17;;;;;;;12.43;7.53;;;16.30;76.50;;;14.84;77.68;96151.53;5005340;28;20034;-66
2021/07/02 06:02:42;;;;;;;18.60;12.88;;;16.40;76.70;;;14.84;77.35;96151.53;4980405;28;20061;-68
2021/07/02 06:05:08;;;;;;;24.40;19.52;;;16.40;76.90;;;14.86;78.02;96150.31;4974408;28;20544;-67
2021/07/02 06:07:48;;;;;;;14.35;10.65;;;16.60;77.30;;;14.95;78.00;96158.81;4968633;28;20042;-67
2021/07/02 06:10:15;;;;;;;10.95;7.60;;;16.70;77.20;;;15.00;78.13;96151.03;4995917;28;20064;-67
2021/07/02 06:12:41;;;;;;;9.40;7.63;;;16.80;76.90;;;15.05;77.67;96153.03;4959033;28;20641;-68
2021/07/02 06:15:07;;;;;;;20.48;13.18;;;16.80;76.50;;;15.07;77.76;96161.56;4992908;28;20038;-66
2021/07/02 06:17:32;;;;;;;12.95;8.88;;;16.80;76.20;;;15.12;77.86;96162.53;5001314;28;20107;-67
2021/07/02 06:19:58;;;;;;;14.32;10.68;;;16.80;76.20;;;15.18;78.34;96164.34;4970677;28;20034;-67
2021/07/02 06:22:24;;;;;;;15.13;10.50;;;17.00;76.30;;;15.24;77.93;96162.66;5002581;28;20088;-67
2021/07/02 06:24:50;;;;;;;8.88;7.32;;;17.00;75.80;;;15.28;77.45;96167.31;4973608;28;20081;-65
2021/07/02 06:27:16;;;;;;;11.32;7.28;;;17.00;75.80;;;15.33;77.33;96161.34;4975569;28;20073;-66
2021/07/02 06:29:41;;;;;;;10.05;6.22;;;17.10;76.10;;;15.38;77.86;96169.47;4972443;28;20409;-66
2021/07/02 06:32:07;;;;;;;11.43;7.60;;;17.10;76.00;;;15.40;77.67;96166.63;4973320;28;20069;-64
2021/07/02 06:34:33;;;;;;;9.10;7.32;;;17.10;75.90;;;15.42;77.59;96169.88;4997356;28;20097;-66
2021/07/02 06:36:59;;;;;;;8.75;6.90;;;17.00;75.70;;;15.42;77.14;96169.88;4987784;28;20045;-68
2021/07/02 06:39:24;;;;;;;9.13;6.85;;;17.10;76.10;;;15.44;77.71;96173.09;4987761;28;20038;-68
2021/07/02 06:41:50;;;;;;;8.98;6.90;;;17.10;76.10;;;15.42;77.23;96170.69;4987521;28;20100;-69
2021/07/02 06:44:16;;;;;;;10.60;6.57;;;17.00;76.00;;;15.43;77.45;96172.28;4975543;28;20069;-64
2021/07/02 06:46:42;;;;;;;11.90;7.28;;;17.10;76.20;;;15.45;76.90;96175.53;4970848;28;20034;-63
2021/07/02 06:49:07;;;;;;;8.70;6.47;;;17.10;76.00;;;15.48;77.88;96179.59;4986432;28;20053;-64
2021/07/02 06:51:33;;;;;;;15.68;11.52;;;17.20;75.90;;;15.53;77.66;96185.03;4966930;28;20037;-66
2021/07/02 06:54:01;;;;;;;10.23;7.97;;;17.20;76.20;;;15.55;77.78;96181.16;5001336;28;20038;-65
2021/07/02 06:56:31;;;;;;;14.27;7.82;;;17.20;75.50;;;15.56;76.92;96181.97;4972200;28;20034;-66
2021/07/02 06:58:57;;;;;;;12.70;7.87;;;17.20;75.10;;;15.58;76.43;96180.72;4985272;28;20042;-66
2021/07/02 07:01:23;;;;;;;9.60;7.35;;;17.20;74.90;;;15.61;77.65;96174.19;4990286;28;20619;-66
2021/07/02 07:03:49;;;;;;;12.13;7.78;;;17.40;75.10;;;15.66;77.30;96181.50;4975362;28;20034;-66
2021/07/02 07:06:15;;;;;;;9.80;7.13;;;17.50;74.80;;;15.69;76.85;96176.56;4982835;28;20405;-66
2021/07/02 07:08:41;;;;;;;10.85;7.03;;;17.30;74.00;;;15.73;76.94;96179.59;4987591;28;20042;-66
2021/07/02 07:11:07;;;;;;;9.48;6.65;;;17.50;74.40;;;15.79;76.96;96176.06;4999620;28;20402;-66
2021/07/02 07:13:33;;;;;;;10.98;7.20;;;17.60;74.10;;;15.89;76.66;96182.50;4993611;28;20605;-66
2021/07/02 07:15:58;;;;;;;7.82;6.43;;;17.80;73.80;;;16.03;75.80;96182.34;4994831;28;20033;-66
2021/07/02 07:18:24;;;;;;;8.98;6.43;;;18.00;73.00;;;16.18;76.00;96188.09;4984612;28;20446;-66
2021/07/02 07:20:50;;;;;;;7.88;6.25;;;18.40;72.20;;;16.34;76.10;96190.16;4974953;28;20034;-66
2021/07/02 07:23:16;;;;;;;14.02;6.43;;;18.60;70.50;;;16.52;74.94;96184.84;4975932;28;20458;-66
2021/07/02 07:25:41;;;;;;;9.00;6.13;;;18.70;69.40;;;16.73;75.31;96180.06;4975596;28;20498;-67
2021/07/02 07:28:07;;;;;;;7.80;5.25;;;19.00;69.60;;;16.93;74.39;96185.91;4975796;28;20046;-66
2021/07/02 07:30:33;;;;;;;9.10;6.07;;;19.30;68.10;;;17.14;73.30;96190.72;4977692;28;20109;-66
2021/07/02 07:32:59;;;;;;;8.10;6.15;;;19.50;67.30;;;17.33;72.78;96183.47;4994569;28;20203;-66
2021/07/02 07:37:55;;;;;;;7.63;5.10;;;19.60;65.60;;;17.66;71.73;96188.25;4994744;28;20044;-66
2021/07/02 07:40:22;;;;;;;7.05;5.47;;;19.90;64.10;;;17.82;71.30;96185.97;4979537;28;20501;-66
2021/07/02 07:42:48;;;;;;;6.95;5.15;;;20.00;64.50;;;17.94;70.62;96186.78;4978503;28;20038;-66
2021/07/02 07:45:13;;;;;;;12.43;7.25;;;19.90;62.50;;;17.99;68.87;96182.38;4960001;28;20097;-66
2021/07/02 07:47:39;;;;;;;11.73;8.60;;;19.80;61.90;;;18.05;68.81;96191.25;5006407;28;20104;-66
2021/07/02 07:50:11;;;;;;;10.48;6.90;;;20.00;61.50;;;18.12;67.96;96191.97;4994433;28;20073;-66
2021/07/02 07:52:43;;;;;;;9.73;5.80;;;20.10;61.20;;;18.20;67.02;96188.13;5013684;28;20107;-66
2021/07/02 07:55:09;;;;;;;8.13;6.03;;;20.20;61.10;;;18.31;67.78;96192.59;4999545;28;20030;-65
2021/07/02 07:57:35;;;;;;;8.20;6.50;;;20.50;61.80;;;18.41;68.22;96192.03;4997528;28;20029;-67
2021/07/02 08:00:03;;;;;;;8.20;6.25;;;20.50;61.60;;;18.46;67.03;96192.13;5006973;28;20047;-66
2021/07/02 08:02:28;;;;;;;13.75;9.48;;;20.40;60.10;;;18.44;66.09;96178.22;4966328;28;20031;-66
2021/07/02 08:04:54;;;;;;;8.18;6.50;;;20.30;60.60;;;18.52;65.93;96185.84;4954884;28;20041;-66
2021/07/02 08:07:20;;;;;;;8.07;5.63;;;20.70;59.90;;;18.71;66.41;96192.63;4955559;28;20074;-66
2021/07/02 08:09:46;;;;;;;6.05;5.00;;;21.00;60.40;;;18.84;66.90;96187.03;4966636;28;20093;-66
2021/07/02 08:12:11;;;;;;;7.53;5.88;;;21.00;59.50;;;18.91;65.88;96179.69;4990633;28;20414;-66
2021/07/02 08:14:38;;;;;;;6.57;5.03;;;21.00;58.40;;;19.12;65.27;96193.38;4973998;28;20042;-66
2021/07/02 08:17:04;;;;;;;11.00;5.25;;;21.50;58.90;;;19.30;65.49;96185.16;5006710;28;20073;-66
2021/07/02 08:19:30;;;;;;;7.00;5.38;;;21.70;57.80;;;19.47;65.03;96183.31;5008392;28;20038;-66
2021/07/02 08:21:56;;;;;;;8.73;5.07;;;21.90;56.20;;;19.70;65.17;96186.91;5010004;28;20505;-66
2021/07/02 08:24:21;;;;;;;6.80;5.63;;;22.10;57.00;;;19.82;64.43;96192.94;4993361;28;20030;-67
2021/07/02 08:26:55;;;;;;;7.57;4.82;;;22.00;54.50;;;19.88;62.69;96187.41;4977247;28;20041;-66
2021/07/02 08:29:26;;;;;;;7.85;4.90;;;22.10;55.40;;;19.87;63.20;96182.34;4994641;28;20523;-66
2021/07/02 08:31:52;;;;;;;10.00;7.15;;;21.80;54.90;;;19.85;62.21;96184.44;4994250;28;20041;-66
2021/07/02 08:34:17;;;;;;;19.52;15.65;;;21.70;55.90;;;19.85;62.69;96192.44;4974813;28;20072;-66
2021/07/02 08:36:43;;;;;;;9.88;7.57;;;21.70;55.50;;;19.92;62.39;96194.97;4990304;28;20503;-66
2021/07/02 08:39:10;;;;;;;8.80;5.13;;;22.10;54.30;;;20.06;62.04;96197.03;4989938;28;20049;-66
2021/07/02 08:41:39;;;;;;;7.30;4.80;;;22.30;52.60;;;20.29;59.01;96187.97;4999343;28;20387;-66
2021/07/02 08:44:05;;;;;;;8.43;6.18;;;22.80;51.70;;;20.57;60.11;96183.53;4990285;28;20081;-66
2021/07/02 08:46:31;;;;;;;7.72;4.75;;;23.30;50.70;;;21.01;59.79;96190.44;4974530;28;20046;-66
2021/07/02 08:48:56;;;;;;;5.30;4.30;;;24.10;48.80;;;21.46;59.23;96178.56;4985804;28;20033;-66
2021/07/02 08:51:23;;;;;;;5.80;4.00;;;24.70;47.70;;;21.83;58.39;96180.44;4992623;28;20451;-66
2021/07/02 08:53:49;;;;;;;6.57;4.30;;;24.70;48.40;;;22.04;57.70;96186.75;4976889;28;20112;-65
2021/07/02 08:56:18;;;;;;;8.30;3.75;;;24.60;46.60;;;22.21;54.34;96179.38;4999096;28;20065;-66
2021/07/02 08:58:44;;;;;;;5.32;4.00;;;24.40;45.80;;;22.24;56.51;96184.22;4984401;28;20040;-65
2021/07/02 09:01:09;;;;;;;5.80;3.88;;;24.20;46.60;;;22.26;56.30;96187.44;4983798;28;20038;-65
2021/07/02 09:03:39;;;;;;;5.45;4.00;;;24.40;46.40;;;22.34;53.43;96178.88;4992796;28;20073;-65
2021/07/02 09:06:19;;;;;;;7.03;3.97;;;24.60;47.10;;;22.36;53.20;96182.09;4992553;28;20536;-65
2021/07/02 09:09:02;;;;;;;;;;;24.50;47.90;;;22.22;51.31;96181.78;5025479;28;20048;-64
2021/07/02 09:11:32;;;;;;;6.53;4.60;;;24.10;45.30;;;22.33;52.16;96188.00;4990998;28;19957;-65
2021/07/02 09:13:58;;;;;;;6.68;3.97;;;24.70;43.40;;;22.52;54.49;96191.03;4970200;28;20044;-65
2021/07/02 09:16:40;;;;;;;5.35;4.13;;;25.00;41.90;;;22.64;49.34;96182.78;4994473;28;20042;-65
2021/07/02 09:19:42;;;;;;;5.75;4.28;;;24.90;42.60;;;22.72;47.83;96179.56;4989212;28;20038;-65
2021/07/02 09:22:18;;;;;;;6.53;3.80;;;24.70;42.10;;;22.73;48.72;96182.00;4971550;28;20382;-64
2021/07/02 09:24:48;;;;;;;6.65;3.55;;;24.80;42.60;;;22.78;49.25;96187.34;4989304;28;20117;-63
2021/07/02 09:27:34;;;;;;;5.82;3.53;;;25.20;42.30;;;22.92;47.42;96196.56;4979355;28;20031;-66
2021/07/02 09:30:14;;;;;;;4.03;3.20;;;25.40;40.60;;;23.01;48.43;96191.47;4956962;28;20038;-66
2021/07/02 09:32:41;;;;;;;4.05;3.33;;;25.20;41.20;;;22.91;50.81;96191.47;5003819;28;20050;-68
2021/07/02 09:35:08;;;;;;;4.65;3.50;;;24.90;41.80;;;22.99;50.87;96190.13;5000962;28;20042;-67
2021/07/02 09:37:54;;;;;;;9.73;7.15;;;25.20;41.00;;;23.09;50.04;96179.44;4963523;28;20413;-66
2021/07/02 09:40:22;;;;;;;6.63;4.30;;;25.30;41.20;;;23.07;48.74;96179.66;4989490;28;20196;-63
2021/07/02 09:43:10;;;;;;;5.18;3.67;;;24.90;40.80;;;22.95;46.30;96181.81;4973119;28;20042;-63
2021/07/02 09:45:52;;;;;;;5.18;3.63;;;24.80;41.30;;;22.87;46.47;96188.50;4992984;28;20136;-64
2021/07/02 09:48:26;;;;;;;4.43;3.28;;;24.80;42.30;;;22.77;47.32;96191.13;4988644;28;20039;-65
2021/07/02 09:50:54;;;;;;;4.13;3.50;;;24.50;42.40;;;22.76;49.60;96192.19;4968278;28;20042;-63
2021/07/02 09:53:27;;;;;;;5.30;4.28;;;24.60;41.90;;;22.83;48.20;96195.44;4989051;28;20061;-63
2021/07/02 09:55:56;;;;;;;4.68;3.65;;;25.00;41.20;;;23.09;48.01;96190.16;4962879;28;20033;-63
2021/07/02 09:58:27;;;;;;;4.75;3.20;;;25.60;39.90;;;23.54;47.19;96192.09;4991822;28;20117;-64
2021/07/02 10:00:59;;;;;;;5.22;2.88;;;26.80;38.70;;;24.07;47.92;96182.66;4991409;28;20034;-64
2021/07/02 10:03:33;;;;;;;4.88;3.00;;;27.80;38.60;;;24.52;45.05;96186.31;4977016;28;20030;-66
2021/07/02 10:06:02;;;;;;;4.97;3.13;;;27.60;36.20;;;24.65;46.01;96195.66;4987226;28;20099;-67
2021/07/02 10:08:33;;;;;;;5.50;3.08;;;27.60;35.80;;;24.71;46.26;96190.00;4989915;28;20406;-68
2021/07/02 10:11:00;;;;;;;3.95;2.85;;;27.00;36.60;;;24.79;45.96;96185.91;4972410;28;20039;-66
2021/07/02 10:13:29;;;;;;;3.90;3.00;;;27.50;36.70;;;25.27;45.01;96194.25;4973282;28;20503;-68
2021/07/02 10:15:56;;;;;;;6.00;3.20;;;28.60;35.50;;;25.82;44.39;96187.66;4974317;28;20038;-68
2021/07/02 10:18:23;;;;;;;5.75;2.90;;;28.90;34.10;;;26.37;44.02;96177.41;4985382;28;20034;-68
2021/07/02 10:20:49;;;;;;;7.13;3.03;;;29.70;34.70;;;26.71;43.65;96182.69;4970682;28;20027;-69